Terminal Aerodrome Forecast
Issued by NWS

Home | Current Version | Previous Version | Text Only | Print | Product List | Glossary On
Versions: 1 2 3 4 5 6 7 8 9 10 11 12 13 14 15 16
000
FTUS45 KPIH 291124
TAFSUN
TAF
KSUN 291124Z 2912/3012 33013KT 6SM FU SKC
     FM291500 33010KT P6SM SKC
     FM291700 15009KT P6SM SKC
     FM292300 26011G18KT P6SM SKC
     FM300300 32013G20KT P6SM SKC
     FM300900 31009KT P6SM SKC
      AMD LTD TO CLD VIS AND WIND TIL 291300=

USA.gov is the U.S. government's official web portal to all federal, state and local government web resources and services.